Time;durP1;ratioP1;P1;durP2;ratioP2;P2;SDS_P1;SDS_P2;PMS_P1;PMS_P2;Temp;Humidity;BMP_temperature;BMP_pressure;BME280_temperature;BME280_humidity;BME280_pressure;Samples;Min_cycle;Max_cycle;Signal;HPM_P1;HPM_P2
2021/12/20 00:02:17;;;;;;;7.13;1.33;;;7.30;99.90;;;;;;5002649;28;20038;-71
2021/12/20 00:04:45;;;;;;;11.57;1.15;;;7.30;99.90;;;;;;5002472;28;20128;-71
2021/12/20 00:07:10;;;;;;;9.82;2.50;;;7.30;99.90;;;;;;4985175;28;20251;-71
2021/12/20 00:09:36;;;;;;;7.90;2.60;;;7.30;99.90;;;;;;4985124;28;20053;-71
2021/12/20 00:12:01;;;;;;;4.38;1.58;;;7.30;99.90;;;;;;5002719;28;20139;-72
2021/12/20 00:14:27;;;;;;;5.18;1.30;;;7.30;99.90;;;;;;5002415;28;20121;-71
2021/12/20 00:16:52;;;;;;;10.80;1.60;;;7.30;99.90;;;;;;5002631;28;20123;-72
2021/12/20 00:19:19;;;;;;;2.20;1.48;;;7.30;99.90;;;;;;5002147;28;20053;-72
2021/12/20 00:21:45;;;;;;;1.77;1.38;;;7.30;99.90;;;;;;5002633;28;20049;-72
2021/12/20 00:24:10;;;;;;;3.25;1.35;;;7.30;99.90;;;;;;4985160;28;20060;-71
2021/12/20 00:26:36;;;;;;;3.10;1.80;;;7.20;99.90;;;;;;5002057;28;20050;-71
2021/12/20 00:29:02;;;;;;;0.98;0.90;;;7.30;99.90;;;;;;4979579;28;20042;-72
2021/12/20 00:31:28;;;;;;;8.98;1.30;;;7.30;99.90;;;;;;4982500;28;20035;-71
2021/12/20 00:33:53;;;;;;;1.02;0.82;;;7.30;99.90;;;;;;4964797;28;20061;-72
2021/12/20 00:36:22;;;;;;;2.15;0.95;;;7.30;99.90;;;;;;4983252;28;20069;-71
2021/12/20 00:41:33;;;;;;;2.20;0.95;;;7.30;99.90;;;;;;4965172;28;20062;-71
2021/12/20 00:43:59;;;;;;;0.95;0.95;;;7.30;99.90;;;;;;4982348;28;20404;-71
2021/12/20 00:46:26;;;;;;;0.90;0.60;;;7.20;99.90;;;;;;4982761;28;20515;-71
2021/12/20 00:48:51;;;;;;;1.27;0.90;;;7.20;99.90;;;;;;4981434;28;20038;-72
2021/12/20 00:51:17;;;;;;;6.30;1.30;;;7.30;99.90;;;;;;4981899;28;20382;-71
2021/12/20 00:53:43;;;;;;;7.70;1.88;;;7.20;99.90;;;;;;4982870;28;20065;-71
2021/12/20 00:56:08;;;;;;;3.33;0.90;;;7.20;99.90;;;;;;4982081;28;20088;-71
2021/12/20 00:58:34;;;;;;;1.50;1.40;;;7.20;99.90;;;;;;4948889;28;20493;-71
2021/12/20 01:01:00;;;;;;;3.28;1.80;;;7.30;99.90;;;;;;4982075;28;20038;-72
2021/12/20 01:03:26;;;;;;;1.80;1.48;;;7.20;99.90;;;;;;4963892;28;20038;-71
2021/12/20 01:05:52;;;;;;;8.82;2.35;;;7.20;99.90;;;;;;4982398;28;20042;-72
2021/12/20 01:08:20;;;;;;;1.23;1.00;;;7.20;99.90;;;;;;4982125;28;20049;-71
2021/12/20 01:10:53;;;;;;;3.83;1.92;;;7.20;99.90;;;;;;4982670;28;20047;-71
2021/12/20 01:13:22;;;;;;;6.93;0.68;;;7.30;99.90;;;;;;4964661;28;20085;-71
2021/12/20 01:15:51;;;;;;;2.33;0.95;;;7.30;99.90;;;;;;4982857;28;20084;-71
2021/12/20 01:18:18;;;;;;;5.78;1.75;;;7.20;99.90;;;;;;4964785;28;20400;-72
2021/12/20 01:20:45;;;;;;;7.03;1.58;;;7.20;99.90;;;;;;4964361;28;20050;-71
2021/12/20 01:23:12;;;;;;;3.15;1.60;;;7.30;99.90;;;;;;4964534;28;20111;-72
2021/12/20 01:25:39;;;;;;;0.40;0.40;;;7.20;99.90;;;;;;4981957;28;20053;-71
2021/12/20 01:28:06;;;;;;;6.18;1.48;;;7.30;99.90;;;;;;4981071;28;20038;-71
2021/12/20 01:30:32;;;;;;;1.15;1.00;;;7.20;99.90;;;;;;4999406;28;20041;-71
2021/12/20 01:32:58;;;;;;;3.05;1.10;;;7.30;99.90;;;;;;4983318;28;20034;-71
2021/12/20 01:35:25;;;;;;;0.60;0.60;;;7.30;99.90;;;;;;5000699;28;20050;-71
2021/12/20 01:37:52;;;;;;;1.30;1.20;;;7.20;99.90;;;;;;5001444;28;20042;-72
2021/12/20 01:40:19;;;;;;;0.85;0.85;;;7.20;99.90;;;;;;4983523;28;20125;-71
2021/12/20 01:42:46;;;;;;;1.30;0.95;;;7.30;99.90;;;;;;4983689;28;20046;-71
2021/12/20 01:45:22;;;;;;;5.47;2.00;;;7.30;99.90;;;;;;5001102;28;20072;-72
2021/12/20 01:47:52;;;;;;;6.00;0.93;;;7.20;99.90;;;;;;5001633;28;20132;-71
2021/12/20 01:51:18;;;;;;;2.05;1.48;;;7.20;99.90;;;;;;5000925;28;20050;-71
2021/12/20 01:53:08;;;;;;;2.15;1.20;;;7.20;99.90;;;;;;4980389;28;20128;-71
2021/12/20 01:55:34;;;;;;;2.05;1.35;;;7.20;99.90;;;;;;4983509;28;20119;-71
2021/12/20 01:58:00;;;;;;;1.75;1.35;;;7.30;99.90;;;;;;4983705;28;20125;-71
2021/12/20 02:00:28;;;;;;;0.70;0.70;;;7.30;99.90;;;;;;5000394;28;20059;-71
2021/12/20 02:02:59;;;;;;;3.50;2.13;;;7.20;99.90;;;;;;5008073;22;20159;-72
2021/12/20 02:05:55;;;;;;;0.30;0.30;;;7.30;99.90;;;;;;4981901;28;20054;-72
2021/12/20 02:08:22;;;;;;;5.03;1.60;;;7.30;99.90;;;;;;4982315;28;20141;-71
2021/12/20 02:10:50;;;;;;;1.92;1.30;;;7.30;99.90;;;;;;4965553;28;20053;-72
2021/12/20 02:13:16;;;;;;;3.80;1.45;;;7.20;99.90;;;;;;4965614;28;20096;-71
2021/12/20 02:15:43;;;;;;;14.80;0.73;;;7.20;99.90;;;;;;4982330;28;20050;-71
2021/12/20 02:18:09;;;;;;;4.13;1.23;;;7.20;99.90;;;;;;4981393;28;20404;-72
2021/12/20 02:20:35;;;;;;;3.05;1.33;;;7.30;99.90;;;;;;4982552;28;20038;-71
2021/12/20 02:23:02;;;;;;;1.50;0.93;;;7.20;99.90;;;;;;4964618;28;20042;-72
2021/12/20 02:25:29;;;;;;;24.92;0.77;;;7.20;99.90;;;;;;4965168;28;20054;-72
2021/12/20 02:27:56;;;;;;;0.28;0.28;;;7.20;99.90;;;;;;4964563;28;20089;-72
2021/12/20 02:38:41;;;;;;;6.65;1.27;;;7.20;99.90;;;;;;5001564;28;20416;-72
2021/12/20 02:41:31;;;;;;;2.13;0.65;;;7.20;99.90;;;;;;5001711;28;20053;-72
2021/12/20 02:44:04;;;;;;;4.72;1.58;;;7.20;99.90;;;;;;5001495;28;20049;-72
2021/12/20 02:49:22;;;;;;;3.83;0.65;;;7.20;99.90;;;;;;4983436;28;20065;-72
2021/12/20 02:51:51;;;;;;;0.65;0.52;;;7.20;99.90;;;;;;5001990;28;20519;-72
2021/12/20 02:54:20;;;;;;;0.63;0.50;;;7.20;99.90;;;;;;5001860;28;20576;-72
2021/12/20 02:56:47;;;;;;;0.35;0.35;;;7.20;99.90;;;;;;5001502;28;20133;-72
2021/12/20 02:59:13;;;;;;;0.80;0.55;;;7.20;99.90;;;;;;5001585;28;20054;-72
2021/12/20 03:01:42;;;;;;;0.57;0.57;;;7.20;99.90;;;;;;5001383;28;20713;-72
2021/12/20 03:04:09;;;;;;;16.65;1.08;;;7.20;99.90;;;;;;4979216;28;20139;-72
2021/12/20 03:06:43;;;;;;;4.57;1.23;;;7.20;99.90;;;;;;4981176;28;20058;-71
2021/12/20 03:09:14;;;;;;;2.10;0.80;;;7.20;99.90;;;;;;4980696;28;20404;-72
2021/12/20 03:11:39;;;;;;;3.10;1.35;;;7.20;99.90;;;;;;4982508;28;20504;-71
2021/12/20 03:14:24;;;;;;;1.85;0.63;;;7.20;99.90;;;;;;4983731;28;20089;-72
2021/12/20 03:16:49;;;;;;;0.20;0.20;;;7.20;99.90;;;;;;4984571;28;20038;-71
2021/12/20 03:19:15;;;;;;;4.45;1.42;;;7.10;99.90;;;;;;4984504;28;20042;-71
2021/12/20 03:21:41;;;;;;;0.43;0.22;;;7.10;99.90;;;;;;4985079;28;20049;-71
2021/12/20 03:24:07;;;;;;;2.72;0.90;;;7.10;99.90;;;;;;4983872;28;20492;-72
2021/12/20 03:26:33;;;;;;;1.00;0.82;;;7.10;99.90;;;;;;4985113;28;20041;-72
2021/12/20 03:28:58;;;;;;;1.65;0.73;;;7.10;99.90;;;;;;4978755;28;20038;-72
2021/12/20 03:31:24;;;;;;;0.63;0.63;;;7.00;99.90;;;;;;4966206;28;20046;-72
2021/12/20 03:33:50;;;;;;;2.72;0.55;;;7.00;99.90;;;;;;4964128;28;20061;-71
2021/12/20 03:36:16;;;;;;;0.52;0.52;;;6.90;99.90;;;;;;4965785;28;20055;-71
2021/12/20 03:38:41;;;;;;;1.42;0.32;;;6.90;99.90;;;;;;4964223;28;20034;-72
2021/12/20 03:41:07;;;;;;;6.32;1.85;;;6.90;99.90;;;;;;4964511;28;20481;-72
2021/12/20 03:43:33;;;;;;;0.28;0.28;;;6.90;99.90;;;;;;4965421;28;20101;-71
2021/12/20 03:45:59;;;;;;;0.38;0.35;;;6.90;99.90;;;;;;4965472;28;20042;-72
2021/12/20 03:48:26;;;;;;;0.40;0.40;;;6.90;99.90;;;;;;4964537;28;20042;-72
2021/12/20 03:50:52;;;;;;;2.90;0.82;;;6.90;99.90;;;;;;4963611;28;20039;-72
2021/12/20 03:53:18;;;;;;;1.00;0.10;;;6.80;99.90;;;;;;4964888;28;20055;-72
2021/12/20 03:55:43;;;;;;;0.77;0.77;;;6.90;99.90;;;;;;4963996;28;20086;-72
2021/12/20 03:58:09;;;;;;;0.77;0.57;;;6.90;99.90;;;;;;4964336;28;20047;-72
2021/12/20 04:00:35;;;;;;;4.80;0.65;;;6.80;99.90;;;;;;4964815;28;20138;-72
2021/12/20 04:03:03;;;;;;;2.47;0.90;;;6.80;99.90;;;;;;4967302;28;20303;-72
2021/12/20 04:05:29;;;;;;;0.47;0.47;;;6.80;99.90;;;;;;4984435;28;20054;-72
2021/12/20 04:07:55;;;;;;;0.20;0.20;;;6.80;99.90;;;;;;4983204;28;20039;-72
2021/12/20 04:10:20;;;;;;;0.03;0.03;;;6.80;99.90;;;;;;4984936;28;20042;-72
2021/12/20 04:12:46;;;;;;;0.10;0.10;;;6.80;99.90;;;;;;4984673;28;20463;-72
2021/12/20 04:15:11;;;;;;;0.10;0.10;;;6.80;99.90;;;;;;4984021;28;20444;-72
2021/12/20 04:17:37;;;;;;;0.50;0.50;;;6.80;99.90;;;;;;4984520;28;20053;-71
2021/12/20 04:20:03;;;;;;;0.88;0.45;;;6.80;99.90;;;;;;4982518;28;20038;-72
2021/12/20 04:22:29;;;;;;;0.55;0.55;;;6.80;99.90;;;;;;4984638;28;20130;-72
2021/12/20 04:24:54;;;;;;;0.13;0.13;;;6.70;99.90;;;;;;4982656;28;20145;-71
2021/12/20 04:27:20;;;;;;;0.95;0.95;;;6.70;99.90;;;;;;4984576;28;20047;-71
2021/12/20 04:29:47;;;;;;;0.15;0.15;;;6.70;99.90;;;;;;4995606;28;20049;-72
2021/12/20 04:32:12;;;;;;;1.02;0.40;;;6.60;99.90;;;;;;5002861;28;20041;-72
2021/12/20 04:34:38;;;;;;;0.10;0.10;;;6.70;99.90;;;;;;4985675;28;20058;-71
2021/12/20 04:37:06;;;;;;;1.45;0.77;;;6.60;99.90;;;;;;5002902;28;20086;-71
2021/12/20 04:39:32;;;;;;;1.13;0.52;;;6.60;99.90;;;;;;5003345;28;20085;-71
2021/12/20 04:41:57;;;;;;;0.10;0.10;;;6.60;99.90;;;;;;5003160;28;20076;-72
2021/12/20 04:44:23;;;;;;;0.30;0.30;;;6.60;99.90;;;;;;5002818;28;20099;-71
2021/12/20 04:46:49;;;;;;;0.05;0.05;;;6.60;99.90;;;;;;4986512;28;20396;-71
2021/12/20 04:49:14;;;;;;;1.17;0.35;;;6.60;99.90;;;;;;5001680;28;20046;-72
2021/12/20 04:51:40;;;;;;;0.57;0.57;;;6.60;99.90;;;;;;5003812;28;20054;-72
2021/12/20 04:54:05;;;;;;;1.30;0.30;;;6.60;99.90;;;;;;4985236;28;20048;-72
2021/12/20 04:56:31;;;;;;;0.20;0.20;;;6.60;99.90;;;;;;5003104;28;20050;-71
2021/12/20 04:58:56;;;;;;;0.50;0.32;;;6.60;99.90;;;;;;5002691;28;20504;-72
2021/12/20 05:01:23;;;;;;;0.45;0.45;;;6.60;99.90;;;;;;4985191;28;20135;-72
2021/12/20 05:03:48;;;;;;;1.08;0.65;;;6.60;99.90;;;;;;5002506;28;20050;-72
2021/12/20 05:06:14;;;;;;;0.47;0.32;;;6.60;99.90;;;;;;4985173;28;20069;-71
2021/12/20 05:08:48;;;;;;;0.13;0.13;;;6.60;99.90;;;;;;5002988;28;20042;-71
2021/12/20 05:11:14;;;;;;;0.38;0.10;;;6.60;99.90;;;;;;4985251;28;20050;-71
2021/12/20 05:13:39;;;;;;;2.45;0.43;;;6.60;99.90;;;;;;5002490;28;20034;-71
2021/12/20 05:16:05;;;;;;;3.80;0.88;;;6.60;99.90;;;;;;5002414;28;20064;-72
2021/12/20 05:18:31;;;;;;;0.08;0.08;;;6.50;99.90;;;;;;5002385;28;20531;-72
2021/12/20 05:20:56;;;;;;;3.80;1.05;;;6.50;99.90;;;;;;4984660;28;20052;-72
2021/12/20 05:23:22;;;;;;;0.30;0.30;;;6.50;99.90;;;;;;4968982;28;20042;-72
2021/12/20 05:25:48;;;;;;;0.20;0.20;;;6.50;99.90;;;;;;5002555;28;20042;-71
2021/12/20 05:28:13;;;;;;;0.32;0.32;;;6.50;99.90;;;;;;5002336;28;20034;-71
2021/12/20 05:30:39;;;;;;;0.30;0.30;;;6.40;99.90;;;;;;4966551;28;20452;-71
2021/12/20 05:33:05;;;;;;;0.55;0.55;;;6.40;99.90;;;;;;4981880;28;20042;-72
2021/12/20 05:35:31;;;;;;;1.45;0.75;;;6.50;99.90;;;;;;4982886;28;20046;-71
2021/12/20 05:37:58;;;;;;;0.28;0.25;;;6.50;99.90;;;;;;4964896;28;20042;-72
2021/12/20 05:40:24;;;;;;;0.88;0.88;;;6.50;99.90;;;;;;4965473;28;20047;-72
2021/12/20 05:42:49;;;;;;;4.65;0.47;;;6.50;99.90;;;;;;4982970;28;20499;-72
2021/12/20 05:45:16;;;;;;;0.05;0.05;;;6.50;99.90;;;;;;4982129;28;20038;-72
2021/12/20 05:47:42;;;;;;;0.25;0.25;;;6.50;99.90;;;;;;4982361;28;20129;-72
2021/12/20 05:50:09;;;;;;;0.15;0.15;;;6.50;99.90;;;;;;4982163;28;20596;-72
2021/12/20 05:52:35;;;;;;;0.65;0.28;;;6.50;99.90;;;;;;4982755;28;20523;-72
2021/12/20 05:55:02;;;;;;;10.93;0.52;;;6.50;99.90;;;;;;4964834;28;20118;-71
2021/12/20 05:57:28;;;;;;;0.10;0.10;;;6.50;99.90;;;;;;4982508;28;20054;-71
2021/12/20 05:59:54;;;;;;;5.07;1.20;;;6.50;99.90;;;;;;4965104;28;20112;-72
2021/12/20 06:02:19;;;;;;;1.40;0.43;;;6.50;99.90;;;;;;4964924;28;20050;-71
2021/12/20 06:04:50;;;;;;;0.68;0.40;;;6.50;99.90;;;;;;4980452;28;20125;-72
2021/12/20 06:07:17;;;;;;;12.45;1.33;;;6.50;99.90;;;;;;4965793;28;20062;-71
2021/12/20 06:09:42;;;;;;;2.90;0.98;;;6.50;99.90;;;;;;4964698;28;20089;-72
2021/12/20 06:12:08;;;;;;;2.38;0.93;;;6.50;99.90;;;;;;4982269;28;20078;-71
2021/12/20 06:14:34;;;;;;;0.22;0.20;;;6.50;99.90;;;;;;4981916;28;20521;-72
2021/12/20 06:17:00;;;;;;;0.52;0.52;;;6.60;99.90;;;;;;4982102;28;20135;-72
2021/12/20 06:19:26;;;;;;;1.65;0.98;;;6.60;99.90;;;;;;4964220;28;20046;-72
2021/12/20 06:21:53;;;;;;;0.30;0.30;;;6.60;99.90;;;;;;4964425;28;20050;-72
2021/12/20 06:24:19;;;;;;;4.32;0.95;;;6.60;99.90;;;;;;4965565;28;20085;-71
2021/12/20 06:26:44;;;;;;;1.33;0.45;;;6.60;99.90;;;;;;4981578;28;20121;-72
2021/12/20 06:29:10;;;;;;;0.30;0.30;;;6.60;99.90;;;;;;4970809;28;20668;-72
2021/12/20 06:31:35;;;;;;;3.05;0.65;;;6.60;99.90;;;;;;5001775;28;20038;-71
2021/12/20 06:34:01;;;;;;;0.20;0.20;;;6.60;99.90;;;;;;5000664;28;20050;-72
2021/12/20 06:36:29;;;;;;;5.85;0.65;;;6.60;99.90;;;;;;5002124;28;20042;-71
2021/12/20 06:38:56;;;;;;;0.40;0.32;;;6.60;99.90;;;;;;5001097;28;20056;-72
2021/12/20 06:41:23;;;;;;;0.77;0.77;;;6.60;99.90;;;;;;5001553;28;20056;-72
2021/12/20 06:43:48;;;;;;;2.13;1.30;;;6.60;99.90;;;;;;4984452;28;20099;-71
2021/12/20 06:46:16;;;;;;;3.25;0.80;;;6.60;99.90;;;;;;5001290;28;20046;-71
2021/12/20 06:48:41;;;;;;;3.50;0.55;;;6.60;99.90;;;;;;5003137;28;20492;-71
2021/12/20 06:51:07;;;;;;;0.57;0.57;;;6.60;99.90;;;;;;5005154;28;20095;-72
2021/12/20 06:53:32;;;;;;;1.25;1.23;;;6.60;99.90;;;;;;4987742;28;20054;-72
2021/12/20 06:55:58;;;;;;;0.20;0.20;;;6.60;99.90;;;;;;5004876;28;20041;-72
2021/12/20 06:58:24;;;;;;;8.02;0.25;;;6.60;99.90;;;;;;5005038;28;20041;-72
2021/12/20 07:00:54;;;;;;;7.68;1.63;;;6.60;99.90;;;;;;4972175;28;20056;-71
2021/12/20 07:03:20;;;;;;;0.52;0.30;;;6.60;99.90;;;;;;4987018;28;20528;-72
2021/12/20 07:05:46;;;;;;;0.40;0.20;;;6.60;99.90;;;;;;5005310;28;20050;-71
2021/12/20 07:08:11;;;;;;;1.73;0.73;;;6.60;99.90;;;;;;5003155;28;20037;-71
2021/12/20 07:10:37;;;;;;;0.40;0.10;;;6.60;99.90;;;;;;5004874;28;20045;-71
2021/12/20 07:13:02;;;;;;;0.95;0.45;;;6.60;99.90;;;;;;5004872;28;20038;-71
2021/12/20 07:15:31;;;;;;;1.20;0.73;;;6.60;99.90;;;;;;5004700;28;20042;-71
2021/12/20 07:17:56;;;;;;;3.70;1.17;;;6.60;99.90;;;;;;4986499;28;20377;-72
2021/12/20 07:20:22;;;;;;;0.43;0.43;;;6.50;99.90;;;;;;4986386;28;20104;-73
2021/12/20 07:22:47;;;;;;;0.40;0.40;;;6.50;99.90;;;;;;4985325;28;20404;-73
2021/12/20 07:25:13;;;;;;;3.50;0.77;;;6.50;99.90;;;;;;4985200;28;20489;-73
2021/12/20 07:27:39;;;;;;;0.43;0.43;;;6.50;99.90;;;;;;4981354;28;20449;-73
2021/12/20 07:30:06;;;;;;;0.80;0.73;;;6.50;99.90;;;;;;4989001;28;20042;-73
2021/12/20 07:32:31;;;;;;;0.52;0.52;;;6.50;99.90;;;;;;4965812;28;20479;-73
2021/12/20 07:34:57;;;;;;;0.65;0.57;;;6.50;99.90;;;;;;4968938;28;20491;-73
2021/12/20 07:37:26;;;;;;;0.93;0.20;;;6.50;99.90;;;;;;4965094;28;20039;-73
2021/12/20 07:39:52;;;;;;;0.82;0.82;;;6.50;99.90;;;;;;4964464;28;20130;-73
2021/12/20 07:42:18;;;;;;;0.17;0.17;;;6.50;99.90;;;;;;4964684;28;20046;-73
2021/12/20 07:44:44;;;;;;;0.15;0.15;;;6.50;99.90;;;;;;4965035;28;20038;-73
2021/12/20 07:47:09;;;;;;;0.10;0.10;;;6.50;99.90;;;;;;4977195;28;20227;-74
2021/12/20 07:49:35;;;;;;;18.10;0.63;;;6.50;99.90;;;;;;4984280;28;20404;-73
2021/12/20 07:52:02;;;;;;;3.60;1.13;;;6.50;99.90;;;;;;4962613;28;20048;-77
2021/12/20 07:54:27;;;;;;;0.50;0.50;;;6.50;99.90;;;;;;4983872;28;20050;-77
2021/12/20 07:56:53;;;;;;;0.28;0.28;;;6.50;99.90;;;;;;4983179;28;20523;-75
2021/12/20 07:59:18;;;;;;;0.38;0.38;;;6.50;99.90;;;;;;4989190;28;20480;-74
2021/12/20 08:01:44;;;;;;;2.63;0.75;;;6.50;99.90;;;;;;4983312;28;20042;-77
2021/12/20 08:04:10;;;;;;;0.93;0.43;;;6.50;99.90;;;;;;4976869;28;20263;-77
2021/12/20 08:06:36;;;;;;;0.85;0.43;;;6.50;99.90;;;;;;4975916;28;20046;-75
2021/12/20 08:09:02;;;;;;;0.43;0.43;;;6.50;99.90;;;;;;4975053;28;20496;-75
2021/12/20 08:11:27;;;;;;;16.83;1.45;;;6.50;99.90;;;;;;4967643;28;20134;-75
2021/12/20 08:13:53;;;;;;;0.52;0.52;;;6.50;99.90;;;;;;4983326;28;20125;-74
2021/12/20 08:16:19;;;;;;;2.20;1.15;;;6.50;99.90;;;;;;4985078;28;20046;-74
2021/12/20 08:18:46;;;;;;;0.65;0.65;;;6.50;99.90;;;;;;4966046;28;20113;-74
2021/12/20 08:21:14;;;;;;;2.50;0.73;;;6.50;99.90;;;;;;4965587;28;20046;-74
2021/12/20 08:23:40;;;;;;;0.93;0.57;;;6.40;99.90;;;;;;4983930;28;20043;-74
2021/12/20 08:26:07;;;;;;;0.40;0.20;;;6.40;99.90;;;;;;4984163;28;20081;-74
2021/12/20 08:28:35;;;;;;;0.05;0.05;;;6.40;99.90;;;;;;4966358;28;20043;-73
2021/12/20 08:31:04;;;;;;;0.30;0.30;;;6.30;99.90;;;;;;5002864;28;20045;-73
2021/12/20 08:33:32;;;;;;;1.75;0.50;;;6.30;99.90;;;;;;4966348;28;20068;-74
2021/12/20 08:36:00;;;;;;;0.75;0.75;;;6.30;99.90;;;;;;4977411;28;20677;-74
2021/12/20 08:38:26;;;;;;;1.40;0.43;;;6.20;99.90;;;;;;4991905;28;20413;-75
2021/12/20 08:40:52;;;;;;;1.45;0.63;;;6.10;99.90;;;;;;4974800;28;20046;-76
2021/12/20 08:43:19;;;;;;;3.53;0.73;;;6.10;99.90;;;;;;4972469;28;20033;-75
2021/12/20 08:45:45;;;;;;;0.68;0.60;;;6.10;99.90;;;;;;4992811;28;20400;-75
2021/12/20 08:48:11;;;;;;;9.23;0.80;;;6.10;99.90;;;;;;4972103;28;20041;-75
2021/12/20 08:50:39;;;;;;;2.55;0.68;;;6.00;99.90;;;;;;4992983;28;20045;-75
2021/12/20 08:53:06;;;;;;;0.57;0.57;;;6.00;99.90;;;;;;4987588;28;20673;-74
2021/12/20 08:55:32;;;;;;;16.75;1.35;;;6.00;99.90;;;;;;4975503;28;20050;-75
2021/12/20 08:57:58;;;;;;;1.20;1.00;;;6.00;99.90;;;;;;4992185;28;20173;-74
2021/12/20 09:00:28;;;;;;;1.70;0.80;;;6.00;99.90;;;;;;4988403;28;20145;-74
2021/12/20 09:02:55;;;;;;;0.73;0.43;;;6.00;99.90;;;;;;4986250;28;20055;-76
2021/12/20 09:05:22;;;;;;;0.75;0.75;;;5.90;99.90;;;;;;4987362;28;20085;-77
2021/12/20 09:07:48;;;;;;;4.20;2.08;;;5.90;99.90;;;;;;4970745;28;20043;-77
2021/12/20 09:10:15;;;;;;;0.38;0.38;;;5.90;99.90;;;;;;4965052;28;20050;-77
2021/12/20 09:12:42;;;;;;;1.35;0.88;;;5.90;99.90;;;;;;4983043;28;20049;-77
2021/12/20 09:15:09;;;;;;;0.40;0.35;;;5.90;99.90;;;;;;4950755;28;20058;-77
2021/12/20 09:17:35;;;;;;;9.05;2.10;;;5.90;99.90;;;;;;4977480;28;20038;-78
2021/12/20 09:20:00;;;;;;;0.90;0.90;;;5.90;99.90;;;;;;4983360;28;20042;-78
2021/12/20 09:22:26;;;;;;;2.15;1.42;;;5.90;99.90;;;;;;4979199;28;20477;-76
2021/12/20 09:24:53;;;;;;;4.22;1.27;;;5.90;99.90;;;;;;4956463;28;20061;-77
2021/12/20 09:27:18;;;;;;;0.77;0.77;;;5.90;99.90;;;;;;4960741;28;20046;-78
2021/12/20 09:29:44;;;;;;;9.65;1.10;;;5.90;99.90;;;;;;4985233;28;20405;-78
2021/12/20 09:32:10;;;;;;;2.78;1.10;;;6.00;99.90;;;;;;4974773;28;20500;-76
2021/12/20 09:34:36;;;;;;;3.25;1.63;;;6.00;99.90;;;;;;4974766;28;20052;-77
2021/12/20 09:37:05;;;;;;;0.73;0.73;;;6.00;99.90;;;;;;4977268;28;20038;-77
2021/12/20 09:39:33;;;;;;;5.30;1.95;;;6.00;99.90;;;;;;4972090;28;20089;-77
2021/12/20 09:42:02;;;;;;;7.00;2.35;;;6.10;99.90;;;;;;4976145;28;20042;-78
2021/12/20 09:44:29;;;;;;;1.85;1.65;;;6.10;99.90;;;;;;4982145;28;20597;-78
2021/12/20 09:46:55;;;;;;;1.17;0.90;;;6.10;99.90;;;;;;4980862;28;20144;-78
2021/12/20 09:49:22;;;;;;;0.50;0.50;;;6.10;99.90;;;;;;4978523;28;20039;-76
2021/12/20 09:51:48;;;;;;;6.78;2.40;;;6.10;99.90;;;;;;4989600;28;20077;-75
2021/12/20 09:54:13;;;;;;;3.72;1.17;;;6.20;99.90;;;;;;4986208;28;20061;-76
2021/12/20 09:56:39;;;;;;;6.82;2.40;;;6.20;99.90;;;;;;4982530;28;20035;-76
2021/12/20 09:59:07;;;;;;;0.88;0.57;;;6.20;99.90;;;;;;4946204;28;20046;-78
2021/12/20 10:01:33;;;;;;;6.22;1.23;;;6.20;99.90;;;;;;4957777;28;20126;-77
2021/12/20 10:03:59;;;;;;;1.77;1.08;;;6.20;99.90;;;;;;4968779;28;20054;-75
2021/12/20 10:06:25;;;;;;;1.65;1.13;;;6.20;99.90;;;;;;4956077;28;20049;-77
2021/12/20 10:08:52;;;;;;;2.78;1.73;;;6.30;99.90;;;;;;4974754;28;20109;-77
2021/12/20 10:11:21;;;;;;;4.40;2.00;;;6.30;99.90;;;;;;4980068;28;20405;-77
2021/12/20 10:13:47;;;;;;;4.20;1.65;;;6.30;99.90;;;;;;4978860;28;20105;-78
2021/12/20 10:16:19;;;;;;;8.48;1.67;;;6.30;99.90;;;;;;4977554;28;20046;-75
2021/12/20 10:18:45;;;;;;;1.63;1.53;;;6.30;99.90;;;;;;4978077;28;20041;-75
2021/12/20 10:21:11;;;;;;;7.93;1.55;;;6.30;99.90;;;;;;4977537;28;20074;-76
2021/12/20 10:23:45;;;;;;;0.65;0.65;;;6.30;99.90;;;;;;4982102;28;20076;-71
2021/12/20 10:26:20;;;;;;;1.88;1.38;;;6.30;99.90;;;;;;4980396;28;20054;-72
2021/12/20 10:28:48;;;;;;;0.85;0.82;;;6.40;99.90;;;;;;4987738;28;20103;-71
2021/12/20 10:31:16;;;;;;;21.55;1.65;;;6.40;99.90;;;;;;5006062;28;20068;-71
2021/12/20 10:33:52;;;;;;;0.52;0.52;;;6.40;99.90;;;;;;4957306;28;20046;-71
2021/12/20 10:36:17;;;;;;;9.43;0.90;;;6.40;99.90;;;;;;4950409;28;20405;-72
2021/12/20 10:38:45;;;;;;;0.45;0.30;;;6.40;99.90;;;;;;4949652;28;20039;-71
2021/12/20 10:41:14;;;;;;;2.10;1.45;;;6.40;99.90;;;;;;4980314;28;20311;-72
2021/12/20 10:43:51;;;;;;;1.23;1.15;;;6.40;99.90;;;;;;4968959;28;20130;-71
2021/12/20 10:46:20;;;;;;;1.48;1.27;;;6.40;99.90;;;;;;4980824;28;20046;-71
2021/12/20 10:48:51;;;;;;;3.67;1.67;;;6.40;99.90;;;;;;4975525;28;20066;-71
2021/12/20 10:51:19;;;;;;;6.50;1.08;;;6.40;99.90;;;;;;4967014;28;20142;-71
2021/12/20 10:53:47;;;;;;;0.75;0.28;;;6.40;99.90;;;;;;4966893;28;20051;-75
2021/12/20 10:56:12;;;;;;;8.73;1.52;;;6.40;99.90;;;;;;4970345;28;20703;-71
2021/12/20 10:58:39;;;;;;;0.63;0.63;;;6.40;99.90;;;;;;5005238;28;20046;-71
2021/12/20 11:04:01;;;;;;;1.73;1.63;;;6.40;99.90;;;;;;4967549;28;20086;-71
2021/12/20 11:09:17;;;;;;;4.30;1.67;;;6.50;99.90;;;;;;4958506;28;20416;-71
2021/12/20 11:11:52;;;;;;;2.10;0.90;;;6.40;99.90;;;;;;4972536;28;20054;-72
2021/12/20 11:14:21;;;;;;;0.90;0.90;;;6.40;99.90;;;;;;4965703;28;20039;-71
2021/12/20 11:16:52;;;;;;;6.22;2.10;;;6.50;99.90;;;;;;4959385;28;20047;-76
2021/12/20 11:19:38;;;;;;;2.67;0.87;;;6.50;99.90;;;;;;4944695;28;20071;-72
2021/12/20 11:22:17;;;;;;;15.75;1.23;;;6.40;99.90;;;;;;4961663;28;20309;-73
2021/12/20 11:24:44;;;;;;;6.82;1.45;;;6.40;99.90;;;;;;4959202;28;20043;-73
2021/12/20 11:27:13;;;;;;;10.63;2.25;;;6.50;99.90;;;;;;4964941;28;20060;-73
2021/12/20 11:29:41;;;;;;;2.13;1.42;;;6.50;99.90;;;;;;4974439;28;20118;-73
2021/12/20 11:32:09;;;;;;;2.33;0.82;;;6.50;99.90;;;;;;4983203;28;20071;-73
2021/12/20 11:34:37;;;;;;;1.20;1.13;;;6.50;99.90;;;;;;4975514;28;20038;-73
2021/12/20 11:37:02;;;;;;;1.55;1.45;;;6.50;99.90;;;;;;4963595;28;20050;-73
2021/12/20 11:39:28;;;;;;;3.45;1.77;;;6.50;99.90;;;;;;4963266;28;20515;-73
2021/12/20 11:41:54;;;;;;;0.65;0.65;;;6.50;99.90;;;;;;4963845;28;20050;-73
2021/12/20 11:44:27;;;;;;;2.20;1.23;;;6.50;99.90;;;;;;4965048;28;20042;-73
2021/12/20 11:47:05;;;;;;;0.98;0.98;;;6.50;99.90;;;;;;4964013;28;20126;-73
2021/12/20 11:49:32;;;;;;;0.88;0.88;;;6.50;99.90;;;;;;4962536;28;20061;-73
2021/12/20 11:52:06;;;;;;;2.13;0.68;;;6.50;99.90;;;;;;4959917;28;20050;-73
2021/12/20 11:54:41;;;;;;;1.10;1.10;;;6.50;99.90;;;;;;4962220;28;20046;-72
2021/12/20 11:57:29;;;;;;;1.58;1.48;;;6.60;99.90;;;;;;4962489;28;20811;-71
2021/12/20 11:59:59;;;;;;;15.00;1.38;;;6.60;99.90;;;;;;4963269;28;20130;-72
2021/12/20 12:02:31;;;;;;;1.65;0.82;;;6.60;99.90;;;;;;4964521;28;20043;-72
2021/12/20 12:05:01;;;;;;;1.27;1.20;;;6.60;99.90;;;;;;4982606;28;20054;-73
2021/12/20 12:07:30;;;;;;;0.52;0.30;;;6.50;99.90;;;;;;4984913;28;20046;-72
2021/12/20 12:10:01;;;;;;;11.85;1.08;;;6.60;99.90;;;;;;4982042;28;20050;-73
2021/12/20 12:12:28;;;;;;;7.30;0.63;;;6.60;99.90;;;;;;4984876;28;20157;-72
2021/12/20 12:15:04;;;;;;;0.73;0.73;;;6.60;99.90;;;;;;4983642;28;20038;-73
2021/12/20 12:17:50;;;;;;;3.45;1.63;;;6.50;99.90;;;;;;4982897;28;20100;-73
2021/12/20 12:20:35;;;;;;;6.50;2.03;;;6.50;99.90;;;;;;4974105;28;20111;-72
2021/12/20 12:23:14;;;;;;;6.00;0.80;;;6.50;99.90;;;;;;4960499;28;20039;-72
2021/12/20 12:25:47;;;;;;;1.30;0.82;;;6.50;99.90;;;;;;4979208;28;20053;-71
2021/12/20 12:28:14;;;;;;;1.17;0.93;;;6.50;99.90;;;;;;4972796;28;20042;-71
2021/12/20 12:30:41;;;;;;;0.70;0.70;;;6.50;99.90;;;;;;4964088;28;20095;-71
2021/12/20 12:33:12;;;;;;;5.13;1.15;;;6.50;99.90;;;;;;4952771;28;20090;-72
2021/12/20 12:35:39;;;;;;;19.38;1.85;;;6.50;99.90;;;;;;4968366;28;20050;-72
2021/12/20 12:38:16;;;;;;;1.00;0.47;;;6.50;99.90;;;;;;4952170;28;20057;-72
2021/12/20 12:40:46;;;;;;;1.55;1.15;;;6.50;99.90;;;;;;4951937;28;20046;-71
2021/12/20 12:43:14;;;;;;;5.70;0.88;;;6.50;99.90;;;;;;4972551;28;20034;-72
2021/12/20 12:45:50;;;;;;;2.85;1.15;;;6.60;99.90;;;;;;4965199;28;20225;-71
2021/12/20 12:48:47;;;;;;;2.00;1.60;;;6.50;99.90;;;;;;4964578;28;20339;-71
2021/12/20 12:51:19;;;;;;;6.75;1.98;;;6.60;99.90;;;;;;4962599;28;20118;-71
2021/12/20 12:53:55;;;;;;;2.10;1.40;;;6.50;99.90;;;;;;4951260;28;20141;-71
2021/12/20 12:56:24;;;;;;;3.15;1.42;;;6.60;99.90;;;;;;4983517;28;20041;-72
2021/12/20 12:59:09;;;;;;;0.43;0.43;;;6.60;99.90;;;;;;4965131;28;20047;-72
2021/12/20 13:01:37;;;;;;;5.28;1.88;;;6.60;99.90;;;;;;4958989;28;20051;-72
2021/12/20 13:04:03;;;;;;;1.95;1.23;;;6.60;99.90;;;;;;4982206;28;20073;-72
2021/12/20 13:06:28;;;;;;;1.60;0.73;;;6.60;99.90;;;;;;4969597;28;20039;-72
2021/12/20 13:08:54;;;;;;;2.72;1.40;;;6.60;99.90;;;;;;4963904;28;20162;-73
2021/12/20 13:11:21;;;;;;;0.20;0.20;;;6.60;99.90;;;;;;4964091;28;20047;-72
2021/12/20 13:13:55;;;;;;;0.52;0.52;;;6.60;99.90;;;;;;4964577;28;20042;-72
2021/12/20 13:16:26;;;;;;;1.50;0.95;;;6.60;99.90;;;;;;4956993;28;20352;-72
2021/12/20 13:18:53;;;;;;;3.00;0.68;;;6.60;99.90;;;;;;4975662;28;20086;-73